Time;durP1;ratioP1;P1;durP2;ratioP2;P2;SDS_P1;SDS_P2;PMS_P1;PMS_P2;Temp;Humidity;BMP_temperature;BMP_pressure;BME280_temperature;BME280_humidity;BME280_pressure;Samples;Min_cycle;Max_cycle;Signal;HPM_P1;HPM_P2
2022/01/05 00:00:41;;;;;;;8.38;2.00;;;;;;;2.52;100.00;100267.47;5279459;28;20028;-74
2022/01/05 00:03:12;;;;;;;15.35;2.20;;;;;;;2.47;100.00;100269.69;5267286;28;20102;-74
2022/01/05 00:05:43;;;;;;;14.93;2.58;;;;;;;2.41;100.00;100271.03;5277639;28;20046;-74
2022/01/05 00:08:14;;;;;;;16.45;2.35;;;;;;;2.42;100.00;100282.47;5279144;27;20024;-74
2022/01/05 00:10:44;;;;;;;16.05;2.25;;;;;;;2.40;100.00;100277.25;5284171;28;20392;-74
2022/01/05 00:13:15;;;;;;;15.23;2.38;;;;;;;2.32;100.00;100280.56;5273262;28;20185;-74
2022/01/05 00:15:45;;;;;;;17.70;2.70;;;;;;;2.25;100.00;100281.19;5275990;28;20024;-75
2022/01/05 00:18:16;;;;;;;16.42;4.43;;;;;;;2.19;100.00;100268.47;5271262;28;20027;-73
2022/01/05 00:20:46;;;;;;;16.23;2.95;;;;;;;2.12;100.00;100272.59;5275513;28;20101;-74
2022/01/05 00:23:17;;;;;;;9.65;2.47;;;;;;;2.02;100.00;100276.00;5285389;28;20020;-73
2022/01/05 00:25:47;;;;;;;16.63;3.15;;;;;;;1.95;100.00;100276.59;5283999;28;20026;-74
2022/01/05 00:28:18;;;;;;;10.60;3.20;;;;;;;1.87;100.00;100282.53;5278561;28;20024;-74
2022/01/05 00:30:49;;;;;;;13.77;3.00;;;;;;;1.79;100.00;100288.44;5280931;28;20492;-74
2022/01/05 00:33:19;;;;;;;18.33;3.40;;;;;;;1.70;100.00;100283.88;5285658;28;20115;-74
2022/01/05 00:35:49;;;;;;;16.48;3.40;;;;;;;1.63;100.00;100282.69;5278867;28;20023;-74
2022/01/05 00:38:20;;;;;;;16.15;3.67;;;;;;;1.54;100.00;100275.50;5285343;28;20028;-74
2022/01/05 00:40:50;;;;;;;11.25;2.80;;;;;;;1.51;100.00;100288.97;5284273;28;20034;-73
2022/01/05 00:43:21;;;;;;;15.65;3.20;;;;;;;1.52;100.00;100293.28;5285016;28;20027;-73
2022/01/05 00:45:51;;;;;;;22.30;4.55;;;;;;;1.49;100.00;100297.00;5284630;28;20110;-73
2022/01/05 00:48:22;;;;;;;20.77;4.00;;;;;;;1.45;100.00;100307.94;5284225;28;20029;-73
2022/01/05 00:50:52;;;;;;;17.20;3.25;;;;;;;1.45;100.00;100307.94;5284734;27;20080;-73
2022/01/05 00:53:23;;;;;;;12.13;3.70;;;;;;;1.41;100.00;100310.00;5270440;28;20107;-74
2022/01/05 00:55:54;;;;;;;13.05;3.50;;;;;;;1.42;100.00;100300.28;5278553;28;20031;-74
2022/01/05 00:58:24;;;;;;;23.30;3.75;;;;;;;1.41;100.00;100298.59;5277650;28;20081;-73
2022/01/05 01:00:56;;;;;;;20.95;4.25;;;;;;;1.43;100.00;100301.94;5268331;28;20012;-73
2022/01/05 01:03:28;;;;;;;15.10;3.50;;;;;;;1.43;100.00;100299.31;5274079;28;20028;-73
2022/01/05 01:05:59;;;;;;;13.93;3.40;;;;;;;1.39;100.00;100298.69;5277258;27;20024;-73
2022/01/05 01:08:31;;;;;;;14.65;3.95;;;;;;;1.34;100.00;100300.84;5277584;28;20012;-73
2022/01/05 01:11:01;;;;;;;28.83;5.43;;;;;;;1.31;100.00;100308.22;5277151;28;20032;-72
2022/01/05 01:13:32;;;;;;;17.20;3.70;;;;;;;1.24;100.00;100305.19;5268078;28;20100;-73
2022/01/05 01:16:03;;;;;;;17.60;4.07;;;;;;;1.21;100.00;100310.72;5273646;27;20085;-73
2022/01/05 01:18:35;;;;;;;23.73;4.47;;;;;;;1.16;100.00;100300.50;5278136;28;20028;-73
2022/01/05 01:21:05;;;;;;;14.35;4.07;;;;;;;1.13;100.00;100307.81;5276715;28;20392;-72
2022/01/05 01:23:37;;;;;;;15.68;3.92;;;;;;;1.15;100.00;100300.59;5279832;28;20028;-73
2022/01/05 01:26:07;;;;;;;11.90;3.90;;;;;;;1.17;100.00;100299.53;5274338;28;20027;-73
2022/01/05 01:28:38;;;;;;;15.73;3.70;;;;;;;1.19;100.00;100305.53;5270614;28;20019;-73
2022/01/05 01:31:08;;;;;;;14.68;3.25;;;;;;;1.19;100.00;100302.91;5272385;28;20500;-72
2022/01/05 01:33:39;;;;;;;16.23;3.70;;;;;;;1.15;100.00;100306.72;5275850;28;20107;-73
2022/01/05 01:36:10;;;;;;;21.20;4.05;;;;;;;1.13;100.00;100310.47;5271302;28;20028;-72
2022/01/05 01:38:42;;;;;;;18.60;3.92;;;;;;;1.08;100.00;100317.91;5273739;28;20031;-73
2022/01/05 01:41:13;;;;;;;16.40;3.63;;;;;;;1.02;100.00;100324.50;5277546;28;20016;-73
2022/01/05 01:43:43;;;;;;;32.17;4.07;;;;;;;1.05;100.00;100324.25;5275588;28;20068;-74
2022/01/05 01:46:14;;;;;;;18.42;3.75;;;;;;;1.10;100.00;100327.38;5270764;28;20024;-73
2022/01/05 01:48:44;;;;;;;15.70;3.90;;;;;;;1.20;100.00;100333.63;5277250;28;20031;-73
2022/01/05 01:51:16;;;;;;;9.15;4.13;;;;;;;1.23;100.00;100329.94;5271403;28;20027;-72
2022/01/05 01:53:47;;;;;;;13.90;3.95;;;;;;;1.22;100.00;100325.63;5270155;28;20097;-73
2022/01/05 01:56:19;;;;;;;16.23;3.65;;;;;;;1.23;100.00;100327.28;5273615;28;20081;-73
2022/01/05 01:58:51;;;;;;;20.98;3.85;;;;;;;1.28;100.00;100325.13;5270826;28;20043;-72
2022/01/05 02:01:22;;;;;;;16.10;3.83;;;;;;;1.26;100.00;100333.19;5274298;28;20020;-74
2022/01/05 02:03:52;;;;;;;17.63;3.45;;;;;;;1.24;100.00;100329.81;5272444;28;20038;-73
2022/01/05 02:06:23;;;;;;;22.05;3.35;;;;;;;1.24;100.00;100326.31;5274027;28;20334;-73
2022/01/05 02:08:53;;;;;;;20.90;3.65;;;;;;;1.19;100.00;100325.84;5268653;28;20020;-73
2022/01/05 02:11:25;;;;;;;11.30;3.33;;;;;;;1.16;100.00;100334.84;5265659;28;20031;-72
2022/01/05 02:14:10;;;;;;;21.02;4.07;;;;;;;1.08;100.00;100329.31;5271916;28;20123;-72
2022/01/05 02:16:44;;;;;;;18.17;2.97;;;;;;;1.07;100.00;100332.09;5270971;28;20016;-73
2022/01/05 02:19:14;;;;;;;10.98;3.13;;;;;;;1.08;100.00;100337.22;5271973;27;20039;-73
2022/01/05 02:21:45;;;;;;;16.73;3.67;;;;;;;1.03;100.00;100332.31;5272514;28;20476;-73
2022/01/05 02:24:16;;;;;;;16.67;3.70;;;;;;;1.02;100.00;100338.56;5270380;28;20024;-73
2022/01/05 02:26:46;;;;;;;13.32;2.92;;;;;;;1.06;100.00;100336.53;5276158;28;20030;-73
2022/01/05 02:29:18;;;;;;;16.35;3.10;;;;;;;1.06;100.00;100339.16;5268078;28;20355;-73
2022/01/05 02:31:48;;;;;;;15.88;3.08;;;;;;;1.03;100.00;100342.88;5270985;28;20764;-73
2022/01/05 02:34:18;;;;;;;10.35;2.70;;;;;;;0.97;100.00;100345.16;5266927;28;20338;-73
2022/01/05 02:36:49;;;;;;;19.75;3.90;;;;;;;0.95;100.00;100342.59;5271216;28;20020;-73
2022/01/05 02:39:20;;;;;;;12.10;2.33;;;;;;;0.91;100.00;100350.91;5269209;28;20028;-73
2022/01/05 02:41:52;;;;;;;15.40;3.05;;;;;;;0.90;100.00;100354.47;5270160;28;20050;-73
2022/01/05 02:44:23;;;;;;;20.48;3.05;;;;;;;0.90;100.00;100357.97;5276930;28;20088;-72
2022/01/05 02:46:53;;;;;;;19.88;3.10;;;;;;;0.86;100.00;100347.78;5267735;28;20020;-73
2022/01/05 02:49:42;;;;;;;20.00;2.67;;;;;;;0.84;100.00;100362.88;5273048;28;20016;-73
2022/01/05 02:52:14;;;;;;;19.15;2.92;;;;;;;0.82;100.00;100362.16;5268911;28;20057;-72
2022/01/05 02:54:45;;;;;;;15.32;3.15;;;;;;;0.81;100.00;100369.25;5266965;28;20548;-73
2022/01/05 02:57:16;;;;;;;18.27;4.25;;;;;;;0.76;100.00;100372.22;5273889;28;20120;-73
2022/01/05 02:59:53;;;;;;;11.25;2.45;;;;;;;0.72;100.00;100376.03;5265389;28;20028;-73
2022/01/05 03:02:23;;;;;;;17.92;3.08;;;;;;;0.72;100.00;100381.31;5276550;28;20028;-72
2022/01/05 03:05:03;;;;;;;16.02;2.95;;;;;;;0.77;100.00;100381.81;5270946;28;20202;-72
2022/01/05 03:07:39;;;;;;;17.17;3.20;;;;;;;0.76;100.00;100381.94;5277705;28;20020;-73
2022/01/05 03:10:11;;;;;;;10.85;2.70;;;;;;;0.76;100.00;100385.44;5276459;28;20024;-73
2022/01/05 03:12:43;;;;;;;9.40;2.63;;;;;;;0.74;100.00;100387.31;5274866;28;20047;-73
2022/01/05 03:15:18;;;;;;;16.55;3.45;;;;;;;0.78;100.00;100377.38;5279062;28;20040;-72
2022/01/05 03:17:49;;;;;;;16.58;2.80;;;;;;;0.74;100.00;100384.69;5275305;27;20556;-72
2022/01/05 03:20:20;;;;;;;22.20;2.70;;;;;;;0.73;100.00;100395.38;5280106;28;20061;-72
2022/01/05 03:22:51;;;;;;;14.02;3.10;;;;;;;0.71;100.00;100400.78;5274536;28;20423;-72
2022/01/05 03:25:21;;;;;;;21.77;2.80;;;;;;;0.71;100.00;100407.84;5278833;28;20033;-72
2022/01/05 03:27:54;;;;;;;12.90;2.28;;;;;;;0.69;100.00;100402.66;5272090;28;20028;-73
2022/01/05 03:30:27;;;;;;;18.35;3.58;;;;;;;0.68;100.00;100408.91;5267714;28;20039;-73
2022/01/05 03:35:32;;;;;;;12.25;2.47;;;;;;;0.70;100.00;100409.66;5277250;28;20030;-72
2022/01/05 03:38:04;;;;;;;13.77;2.47;;;;;;;0.69;100.00;100423.78;5276911;28;20016;-72
2022/01/05 03:40:36;;;;;;;14.77;2.25;;;;;;;0.70;100.00;100428.13;5281812;28;20023;-72
2022/01/05 03:43:07;;;;;;;12.68;2.65;;;;;;;0.72;100.00;100436.78;5270854;27;20027;-72
2022/01/05 03:45:38;;;;;;;17.17;2.78;;;;;;;0.75;100.00;100435.69;5284060;28;20041;-72
2022/01/05 03:48:11;;;;;;;15.85;2.47;;;;;;;0.74;100.00;100434.84;5279732;28;20028;-72
2022/01/05 03:50:41;;;;;;;21.02;2.60;;;;;;;0.80;100.00;100438.00;5276659;28;20055;-72
2022/01/05 03:53:12;;;;;;;16.88;2.50;;;;;;;0.78;100.00;100438.94;5281879;28;20111;-72
2022/01/05 03:55:44;;;;;;;14.57;3.22;;;;;;;0.73;100.00;100429.69;5282359;28;20460;-72
2022/01/05 03:58:15;;;;;;;13.60;2.40;;;;;;;0.73;100.00;100438.44;5283161;28;20034;-72
2022/01/05 04:00:51;;;;;;;18.90;2.80;;;;;;;0.71;100.00;100440.38;5281184;28;20028;-73
2022/01/05 04:03:21;;;;;;;23.42;2.95;;;;;;;0.74;100.00;100441.94;5284287;28;20388;-72
2022/01/05 04:05:52;;;;;;;14.60;2.63;;;;;;;0.75;100.00;100443.59;5280720;28;20020;-73
2022/01/05 04:08:22;;;;;;;13.00;2.30;;;;;;;0.75;100.00;100451.53;5277582;27;20028;-72
2022/01/05 04:10:53;;;;;;;25.52;2.92;;;;;;;0.70;100.00;100454.53;5268853;28;20072;-75
2022/01/05 04:13:23;;;;;;;14.38;3.80;;;;;;;0.68;100.00;100461.72;5282747;28;20081;-73
2022/01/05 04:15:54;;;;;;;16.00;3.08;;;;;;;0.65;100.00;100459.31;5280138;28;20024;-72
2022/01/05 04:18:24;;;;;;;13.07;2.05;;;;;;;0.66;100.00;100452.22;5280920;28;20046;-72
2022/01/05 04:20:55;;;;;;;16.80;2.42;;;;;;;0.69;100.00;100463.38;5282109;28;20030;-71
2022/01/05 04:23:25;;;;;;;14.38;2.85;;;;;;;0.68;100.00;100467.00;5280310;28;20070;-72
2022/01/05 04:25:56;;;;;;;16.50;3.25;;;;;;;0.64;100.00;100462.88;5282738;28;20389;-73
2022/01/05 04:28:27;;;;;;;19.75;2.60;;;;;;;0.62;100.00;100464.81;5281739;28;20048;-73
2022/01/05 04:30:57;;;;;;;11.02;2.40;;;;;;;0.61;100.00;100459.66;5265531;28;20051;-72
2022/01/05 04:33:28;;;;;;;22.90;3.28;;;;;;;0.67;100.00;100467.13;5265594;28;20027;-72
2022/01/05 04:35:58;;;;;;;19.10;3.35;;;;;;;0.68;100.00;100461.72;5268522;28;20071;-72
2022/01/05 04:38:28;;;;;;;33.03;3.15;;;;;;;0.65;100.00;100469.88;5272977;28;20020;-72
2022/01/05 04:40:59;;;;;;;16.00;2.90;;;;;;;0.63;100.00;100471.75;5274410;28;20058;-72
2022/01/05 04:43:30;;;;;;;20.30;4.18;;;;;;;0.59;100.00;100478.22;5277758;28;20034;-72
2022/01/05 04:46:00;;;;;;;17.65;3.13;;;;;;;0.61;100.00;100481.59;5265018;28;20039;-73
2022/01/05 04:48:31;;;;;;;16.10;3.20;;;;;;;0.63;100.00;100482.31;5265448;28;20047;-73
2022/01/05 04:51:02;;;;;;;15.48;3.58;;;;;;;0.63;100.00;100470.94;5268731;28;20080;-72
2022/01/05 04:53:32;;;;;;;13.32;2.72;;;;;;;0.62;100.00;100471.88;5274930;28;20024;-73
2022/01/05 04:56:03;;;;;;;16.75;2.85;;;;;;;0.60;100.00;100479.91;5264936;28;20030;-72
2022/01/05 04:58:33;;;;;;;26.60;3.15;;;;;;;0.58;100.00;100473.91;5265276;28;20068;-72
2022/01/05 05:01:04;;;;;;;20.02;2.88;;;;;;;0.58;100.00;100480.97;5271296;28;20077;-72
2022/01/05 05:03:34;;;;;;;21.38;3.28;;;;;;;0.58;100.00;100488.91;5271470;28;20103;-72
2022/01/05 05:06:05;;;;;;;21.92;3.15;;;;;;;0.57;100.00;100487.22;5272329;28;20051;-73
2022/01/05 05:08:35;;;;;;;18.98;3.22;;;;;;;0.58;100.00;100488.91;5285977;28;20016;-72
2022/01/05 05:11:06;;;;;;;22.23;3.50;;;;;;;0.57;100.00;100490.69;5267808;28;20032;-73
2022/01/05 05:13:36;;;;;;;16.15;2.92;;;;;;;0.60;100.00;100492.25;5264613;28;20023;-71
2022/01/05 05:16:07;;;;;;;27.45;3.17;;;;;;;0.59;100.00;100496.69;5264185;28;20085;-72
2022/01/05 05:18:37;;;;;;;23.30;3.22;;;;;;;0.60;100.00;100486.97;5264465;28;20477;-72
2022/01/05 05:21:08;;;;;;;12.90;3.13;;;;;;;0.60;100.00;100487.81;5276336;28;20051;-72
2022/01/05 05:23:38;;;;;;;16.33;3.25;;;;;;;0.60;100.00;100498.38;5280103;28;20019;-71
2022/01/05 05:26:10;;;;;;;24.13;3.47;;;;;;;0.60;100.00;100508.94;5264171;28;20119;-73
2022/01/05 05:28:41;;;;;;;12.43;2.97;;;;;;;0.60;100.00;100508.94;5284647;28;20023;-73
2022/01/05 05:31:11;;;;;;;24.55;4.00;;;;;;;0.61;100.00;100501.88;5271698;28;20032;-72
2022/01/05 05:33:42;;;;;;;24.70;3.30;;;;;;;0.62;100.00;100511.50;5264756;28;20020;-71
2022/01/05 05:36:12;;;;;;;14.93;3.75;;;;;;;0.62;100.00;100503.56;5275222;28;20106;-71
2022/01/05 05:38:43;;;;;;;20.65;2.85;;;;;;;0.62;100.00;100500.94;5272747;28;20380;-73
2022/01/05 05:41:13;;;;;;;29.63;3.92;;;;;;;0.65;100.00;100500.69;5274412;28;20429;-72
2022/01/05 05:43:44;;;;;;;13.48;2.42;;;;;;;0.69;100.00;100499.50;5276139;28;20031;-72
2022/01/05 05:46:16;;;;;;;23.15;2.90;;;;;;;0.77;100.00;100505.94;5263689;28;20361;-72
2022/01/05 05:48:46;;;;;;;16.83;3.10;;;;;;;0.83;100.00;100509.09;5264156;28;20489;-72
2022/01/05 05:51:17;;;;;;;12.32;2.67;;;;;;;0.84;100.00;100506.31;5262706;28;20104;-72
2022/01/05 05:53:47;;;;;;;34.35;3.75;;;;;;;0.84;100.00;100510.75;5263662;28;20028;-72
2022/01/05 05:56:18;;;;;;;23.92;2.92;;;;;;;0.86;100.00;100533.47;5283034;28;20008;-72
2022/01/05 05:58:49;;;;;;;17.83;2.72;;;;;;;0.91;100.00;100533.16;5284857;28;20045;-72
2022/01/05 06:01:19;;;;;;;22.17;3.22;;;;;;;0.92;100.00;100519.81;5284937;28;20027;-72
2022/01/05 06:03:50;;;;;;;18.77;3.70;;;;;;;0.97;100.00;100524.75;5284758;28;20392;-72
2022/01/05 06:06:20;;;;;;;22.00;2.65;;;;;;;0.99;100.00;100523.69;5284285;28;20035;-72
2022/01/05 06:08:51;;;;;;;17.95;2.95;;;;;;;1.09;100.00;100530.94;5284657;28;20015;-71
2022/01/05 06:11:22;;;;;;;14.05;3.05;;;;;;;1.19;100.00;100539.88;5264476;28;20042;-72
2022/01/05 06:13:54;;;;;;;15.60;3.30;;;;;;;1.23;100.00;100536.03;5264234;28;20476;-72
2022/01/05 06:16:24;;;;;;;18.33;2.88;;;;;;;1.24;100.00;100543.84;5263529;28;20032;-72
2022/01/05 06:18:55;;;;;;;21.83;2.90;;;;;;;1.28;100.00;100549.75;5263289;28;20495;-71
2022/01/05 06:21:25;;;;;;;20.77;2.80;;;;;;;1.29;100.00;100548.78;5276094;28;20040;-71
2022/01/05 06:23:56;;;;;;;19.77;3.58;;;;;;;1.30;100.00;100542.53;5284839;28;20133;-71
2022/01/05 06:26:26;;;;;;;15.85;3.40;;;;;;;1.28;100.00;100547.13;5271973;28;20382;-71
2022/01/05 06:28:57;;;;;;;21.48;3.33;;;;;;;1.24;100.00;100548.28;5275247;28;20031;-71
2022/01/05 06:31:27;;;;;;;17.23;2.80;;;;;;;1.33;100.00;100552.91;5277306;28;20023;-74
2022/01/05 06:33:58;;;;;;;15.82;2.65;;;;;;;1.35;100.00;100558.91;5263504;28;20028;-73
2022/01/05 06:36:28;;;;;;;23.58;3.30;;;;;;;1.41;100.00;100549.69;5277727;28;20472;-72
2022/01/05 06:38:59;;;;;;;22.88;3.13;;;;;;;1.50;100.00;100562.22;5284146;28;20499;-74
2022/01/05 06:41:29;;;;;;;19.13;2.95;;;;;;;1.55;100.00;100554.78;5272777;28;20437;-74
2022/01/05 06:44:00;;;;;;;18.15;2.60;;;;;;;1.59;100.00;100553.59;5284802;28;20035;-74
2022/01/05 06:46:30;;;;;;;15.98;3.08;;;;;;;1.61;100.00;100562.25;5284038;27;20016;-74
2022/01/05 06:49:01;;;;;;;17.83;3.03;;;;;;;1.66;100.00;100560.13;5286735;28;20106;-74
2022/01/05 06:51:31;;;;;;;23.30;2.55;;;;;;;1.60;100.00;100563.19;5281402;28;20055;-74
2022/01/05 06:54:02;;;;;;;11.60;2.60;;;;;;;1.59;100.00;100564.16;5280936;28;20039;-74
2022/01/05 06:56:32;;;;;;;15.73;2.60;;;;;;;1.52;100.00;100555.03;5267848;28;20020;-74
2022/01/05 06:59:03;;;;;;;17.15;2.67;;;;;;;1.46;100.00;100568.72;5270354;28;20154;-73
2022/01/05 07:01:33;;;;;;;15.57;2.47;;;;;;;1.44;100.00;100576.72;5288649;28;20027;-74
2022/01/05 07:04:04;;;;;;;12.15;3.15;;;;;;;1.44;100.00;100562.69;5284984;28;20843;-73
2022/01/05 07:06:34;;;;;;;18.55;3.20;;;;;;;1.40;100.00;100569.97;5266984;28;20076;-73
2022/01/05 07:09:05;;;;;;;19.25;2.88;;;;;;;1.36;100.00;100573.84;5270416;28;20027;-75
2022/01/05 07:11:36;;;;;;;19.13;3.97;;;;;;;1.45;100.00;100585.50;5288662;28;20176;-75
2022/01/05 07:14:06;;;;;;;10.43;2.72;;;;;;;1.52;100.00;100592.03;5288046;28;20111;-74
2022/01/05 07:16:37;;;;;;;23.20;3.00;;;;;;;1.58;100.00;100591.56;5288206;27;20020;-74
2022/01/05 07:19:07;;;;;;;17.13;2.83;;;;;;;1.71;100.00;100597.63;5266582;28;20051;-74
2022/01/05 07:21:38;;;;;;;14.93;2.85;;;;;;;1.80;100.00;100588.97;5267061;28;20465;-74
2022/01/05 07:24:12;;;;;;;16.92;2.75;;;;;;;1.85;100.00;100591.28;5266810;28;20028;-75
2022/01/05 07:26:44;;;;;;;17.63;2.75;;;;;;;1.90;100.00;100599.72;5283047;28;20507;-74
2022/01/05 07:29:17;;;;;;;15.55;3.05;;;;;;;1.91;100.00;100608.50;5277204;28;20164;-74
2022/01/05 07:31:48;;;;;;;19.95;3.42;;;;;;;2.00;100.00;100615.72;5267276;28;20476;-75
2022/01/05 07:34:18;;;;;;;19.23;2.38;;;;;;;2.01;100.00;100623.56;5266959;28;20047;-74
2022/01/05 07:36:49;;;;;;;18.13;3.45;;;;;;;2.04;100.00;100628.63;5275890;28;20027;-75
2022/01/05 07:39:19;;;;;;;22.05;2.97;;;;;;;2.06;100.00;100634.66;5273907;28;20115;-73
2022/01/05 07:41:50;;;;;;;25.67;4.40;;;;;;;2.07;100.00;100635.50;5277572;28;20456;-73
2022/01/05 07:44:20;;;;;;;18.30;3.10;;;;;;;2.11;100.00;100641.38;5272750;28;20039;-73
2022/01/05 07:46:51;;;;;;;15.90;3.25;;;;;;;2.13;100.00;100656.19;5266727;28;20032;-73
2022/01/05 07:49:21;;;;;;;16.88;3.22;;;;;;;2.16;100.00;100652.44;5266360;28;20103;-73
2022/01/05 07:51:52;;;;;;;22.75;4.82;;;;;;;2.12;100.00;100657.16;5266652;28;20020;-74
2022/01/05 07:54:22;;;;;;;32.83;8.20;;;;;;;2.16;100.00;100655.97;5283747;28;20556;-74
2022/01/05 07:56:53;;;;;;;29.00;4.57;;;;;;;2.18;100.00;100666.44;5287423;28;20349;-74
2022/01/05 07:59:23;;;;;;;16.20;4.47;;;;;;;2.20;100.00;100665.34;5266778;28;20417;-74
2022/01/05 08:01:54;;;;;;;125.65;43.05;;;;;;;2.24;100.00;100669.44;5266216;28;20500;-74
2022/01/05 08:04:24;;;;;;;42.63;14.13;;;;;;;2.26;100.00;100683.41;5272273;28;20106;-74
2022/01/05 08:06:55;;;;;;;20.00;4.57;;;;;;;2.26;100.00;100686.06;5274579;28;20027;-74
2022/01/05 08:09:27;;;;;;;111.30;41.28;;;;;;;2.32;100.00;100684.75;5269569;28;20491;-74
2022/01/05 08:11:58;;;;;;;51.40;17.25;;;;;;;2.34;100.00;100681.00;5267678;28;20065;-74
2022/01/05 08:14:29;;;;;;;52.90;20.80;;;;;;;2.33;100.00;100676.69;5287013;28;20019;-74
2022/01/05 08:16:59;;;;;;;35.88;11.50;;;;;;;2.40;100.00;100690.28;5283656;28;20024;-74
2022/01/05 08:19:30;;;;;;;101.93;44.08;;;;;;;2.43;100.00;100699.81;5265496;28;20028;-74
2022/01/05 08:22:00;;;;;;;63.50;27.88;;;;;;;2.43;100.00;100695.34;5265955;28;20043;-74
2022/01/05 08:24:30;;;;;;;17.75;4.55;;;;;;;2.44;100.00;100696.19;5266206;28;20052;-74
2022/01/05 08:27:01;;;;;;;20.35;6.10;;;;;;;2.48;100.00;100700.31;5272927;27;20426;-74
2022/01/05 08:29:32;;;;;;;20.63;4.47;;;;;;;2.52;100.00;100702.59;5267893;28;20047;-74
2022/01/05 08:32:04;;;;;;;20.95;3.50;;;;;;;2.56;100.00;100696.13;5283772;28;20106;-74
2022/01/05 08:34:34;;;;;;;21.77;7.55;;;;;;;2.62;100.00;100712.50;5270214;28;20473;-74
2022/01/05 08:37:05;;;;;;;14.15;3.85;;;;;;;2.63;100.00;100696.47;5271325;28;20072;-74
2022/01/05 08:39:35;;;;;;;25.50;4.47;;;;;;;2.66;100.00;100700.66;5283019;27;20024;-73
2022/01/05 08:42:06;;;;;;;28.55;5.45;;;;;;;2.72;100.00;100698.41;5290694;27;20054;-74
2022/01/05 08:44:36;;;;;;;19.63;3.40;;;;;;;2.77;100.00;100708.66;5295007;27;20059;-73
2022/01/05 08:47:08;;;;;;;19.60;3.97;;;;;;;2.83;100.00;100716.13;5295017;27;20028;-74
2022/01/05 08:49:38;;;;;;;24.08;3.72;;;;;;;2.84;100.00;100720.44;5293102;27;20068;-74
2022/01/05 08:52:09;;;;;;;28.65;3.10;;;;;;;2.92;100.00;100728.66;5293276;27;20410;-74
2022/01/05 08:54:39;;;;;;;11.25;2.95;;;;;;;2.97;100.00;100734.44;5292624;27;20031;-74
2022/01/05 08:57:10;;;;;;;22.83;3.10;;;;;;;2.98;100.00;100735.28;5288381;27;20546;-74
2022/01/05 08:59:40;;;;;;;14.45;2.92;;;;;;;3.01;100.00;100738.53;5291218;27;20384;-74
2022/01/05 09:02:15;;;;;;;48.15;14.00;;;;;;;3.04;100.00;100738.28;5298637;27;20011;-74
2022/01/05 09:04:48;;;;;;;20.10;5.28;;;;;;;3.03;100.00;100741.06;5297678;27;20134;-74
2022/01/05 09:07:19;;;;;;;15.50;3.85;;;;;;;3.05;100.00;100739.13;5290089;27;20028;-74
2022/01/05 09:09:50;;;;;;;38.65;13.23;;;;;;;3.10;100.00;100744.91;5291116;27;20412;-74
2022/01/05 09:12:21;;;;;;;46.25;19.42;;;;;;;3.14;100.00;100743.69;5292300;27;20083;-74
2022/01/05 09:14:52;;;;;;;23.90;5.93;;;;;;;3.18;100.00;100745.16;5290873;27;20431;-74
2022/01/05 09:17:24;;;;;;;20.25;4.43;;;;;;;3.23;100.00;100748.28;5290671;27;20037;-74
2022/01/05 09:19:55;;;;;;;35.83;11.85;;;;;;;3.27;100.00;100746.25;5290665;27;20022;-74
2022/01/05 09:22:26;;;;;;;18.45;4.00;;;;;;;3.27;100.00;100733.81;5282047;27;20027;-74
2022/01/05 09:24:56;;;;;;;16.10;3.75;;;;;;;3.36;100.00;100748.13;5294225;27;20658;-75
2022/01/05 09:27:27;;;;;;;25.60;5.43;;;;;;;3.46;100.00;100750.91;5288355;27;20034;-74
2022/01/05 09:29:58;;;;;;;22.92;3.05;;;;;;;3.53;100.00;100749.47;5293296;27;20234;-73
2022/01/05 09:32:28;;;;;;;24.55;3.60;;;;;;;3.61;100.00;100752.31;5294878;27;20049;-74
2022/01/05 09:34:59;;;;;;;23.00;3.80;;;;;;;3.66;100.00;100755.44;5289661;27;20035;-73
2022/01/05 09:37:35;;;;;;;16.25;3.33;;;;;;;3.65;100.00;100764.38;5281604;27;20463;-74
2022/01/05 09:42:56;;;;;;;16.63;4.35;;;;;;;3.76;100.00;100774.94;5281821;27;20028;-74
2022/01/05 09:45:30;;;;;;;20.60;5.60;;;;;;;3.75;100.00;100775.09;5288652;27;20034;-73
2022/01/05 09:48:38;;;;;;;21.00;3.60;;;;;;;3.74;100.00;100790.16;5291603;27;20026;-74
2022/01/05 09:51:12;;;;;;;20.25;3.92;;;;;;;3.72;100.00;100786.81;5290748;27;20277;-73
2022/01/05 09:53:42;;;;;;;20.25;3.85;;;;;;;3.68;100.00;100785.38;5293987;27;20027;-74
2022/01/05 09:56:13;;;;;;;22.17;5.95;;;;;;;3.61;100.00;100789.47;5281937;27;20046;-73
2022/01/05 09:58:44;;;;;;;26.38;4.80;;;;;;;3.55;100.00;100784.66;5294039;27;20359;-73
2022/01/05 10:01:15;;;;;;;24.83;4.70;;;;;;;3.48;100.00;100789.59;5290622;27;20292;-73
2022/01/05 10:03:45;;;;;;;17.67;4.53;;;;;;;3.47;100.00;100803.00;5295024;27;20031;-73
2022/01/05 10:06:16;;;;;;;20.42;4.13;;;;;;;3.56;100.00;100811.03;5282627;27;20544;-73
2022/01/05 10:08:46;;;;;;;21.20;3.72;;;;;;;3.59;100.00;100810.81;5286265;27;20015;-73
2022/01/05 10:11:17;;;;;;;16.42;3.05;;;;;;;3.54;100.00;100807.69;5288115;27;20038;-73
2022/01/05 10:13:49;;;;;;;25.10;5.13;;;;;;;3.47;100.00;100818.91;5296995;27;20027;-73
2022/01/05 10:16:20;;;;;;;22.70;5.47;;;;;;;3.59;100.00;100823.22;5291759;27;20033;-73
2022/01/05 10:18:51;;;;;;;20.52;5.90;;;;;;;4.06;100.00;100822.06;5290276;27;20027;-73
2022/01/05 10:21:21;;;;;;;27.23;4.97;;;;;;;4.28;100.00;100826.47;5291721;27;20035;-73
2022/01/05 10:23:53;;;;;;;21.13;4.90;;;;;;;4.38;100.00;100838.03;5296844;27;20015;-73
2022/01/05 10:26:40;;;;;;;22.08;4.82;;;;;;;4.31;100.00;100834.16;5292473;27;20027;-73
2022/01/05 10:29:26;;;;;;;21.50;3.95;;;;;;;4.23;100.00;100831.31;5296116;27;20027;-73
2022/01/05 10:31:57;;;;;;;13.02;3.85;;;;;;;4.20;100.00;100826.25;5292263;27;20023;-73
2022/01/05 10:34:29;;;;;;;29.73;5.88;;;;;;;4.17;100.00;100847.75;5292608;27;20705;-73
2022/01/05 10:37:05;;;;;;;24.90;4.97;;;;;;;4.23;100.00;100854.38;5290681;27;20019;-73
2022/01/05 10:39:39;;;;;;;14.32;3.55;;;;;;;4.27;100.00;100843.38;5291840;28;20028;-73
2022/01/05 10:42:12;;;;;;;20.60;6.32;;;;;;;4.23;100.00;100847.25;5286553;28;20026;-73
2022/01/05 10:44:50;;;;;;;24.60;4.80;;;;;;;4.23;100.00;100852.56;5281233;28;20396;-73
2022/01/05 10:47:21;;;;;;;35.10;10.23;;;;;;;4.21;100.00;100846.50;5291150;28;20075;-73
2022/01/05 10:49:51;;;;;;;14.77;5.10;;;;;;;4.18;100.00;100844.13;5284432;27;20025;-73
2022/01/05 10:52:24;;;;;;;15.15;5.25;;;;;;;4.20;100.00;100850.16;5288367;28;20207;-73
2022/01/05 10:55:08;;;;;;;24.83;4.90;;;;;;;4.26;100.00;100862.06;5289282;27;20038;-73
2022/01/05 10:57:55;;;;;;;23.52;6.22;;;;;;;4.29;100.00;100860.03;5287857;28;20106;-73
2022/01/05 11:00:46;;;;;;;36.85;8.15;;;;;;;4.32;100.00;100872.22;5284601;28;20019;-73
2022/01/05 11:03:35;;;;;;;20.80;5.55;;;;;;;4.38;100.00;100869.91;5291953;28;20733;-73
2022/01/05 11:06:07;;;;;;;22.25;5.43;;;;;;;4.35;100.00;100872.78;5293813;28;20027;-73
2022/01/05 11:08:59;;;;;;;27.13;6.28;;;;;;;4.43;100.00;100874.84;5296570;28;20685;-73
2022/01/05 11:11:51;;;;;;;26.15;6.47;;;;;;;4.57;100.00;100876.38;5291796;27;20468;-73
2022/01/05 11:14:34;;;;;;;22.48;4.85;;;;;;;4.62;100.00;100872.34;5295345;28;20468;-73
2022/01/05 11:17:05;;;;;;;25.67;5.20;;;;;;;4.67;100.00;100879.94;5291834;27;20012;-73
2022/01/05 11:19:36;;;;;;;21.58;3.92;;;;;;;4.77;100.00;100875.56;5291260;27;20342;-74
2022/01/05 11:22:09;;;;;;;18.50;5.22;;;;;;;4.82;100.00;100883.97;5282638;27;20395;-73
2022/01/05 11:24:44;;;;;;;20.20;3.55;;;;;;;4.90;100.00;100881.50;5294569;28;20085;-73
2022/01/05 11:27:18;;;;;;;29.17;3.92;;;;;;;4.99;100.00;100881.72;5292070;27;20607;-73
2022/01/05 11:29:49;;;;;;;27.58;5.68;;;;;;;5.00;100.00;100881.56;5292257;28;20379;-73
2022/01/05 11:32:24;;;;;;;28.48;3.38;;;;;;;5.08;100.00;100892.41;5288493;28;20027;-73
2022/01/05 11:34:56;;;;;;;25.23;5.03;;;;;;;5.11;100.00;100893.97;5293571;27;20386;-73
2022/01/05 11:37:26;;;;;;;15.30;3.80;;;;;;;5.13;100.00;100892.03;5290235;27;20055;-73
2022/01/05 11:39:57;;;;;;;19.88;3.53;;;;;;;5.22;100.00;100901.03;5296536;27;20482;-73
2022/01/05 11:42:34;;;;;;;20.65;3.20;;;;;;;5.29;100.00;100897.72;5298174;27;20023;-73